createdAt,value
2018-02-11T00:00:06.281Z,18.84
2018-02-11T00:01:06.313Z,18.89
2018-02-11T00:02:06.658Z,18.86
2018-02-11T00:03:06.313Z,18.91
2018-02-11T00:04:06.429Z,18.79
2018-02-11T00:05:06.387Z,18.86
2018-02-11T00:06:06.483Z,18.82
2018-02-11T00:07:06.494Z,18.87
2018-02-11T00:08:06.525Z,18.91
2018-02-11T00:09:06.897Z,18.90
2018-02-11T00:10:06.515Z,18.84
2018-02-11T00:11:06.582Z,18.89
2018-02-11T00:12:06.568Z,18.89
2018-02-11T00:13:06.619Z,18.84
2018-02-11T00:14:06.703Z,18.83
2018-02-11T00:15:06.732Z,18.90
2018-02-11T00:16:07.132Z,18.84
2018-02-11T00:17:06.793Z,18.83
2018-02-11T00:18:06.825Z,18.86
2018-02-11T00:20:06.903Z,18.90
2018-02-11T00:23:07.257Z,18.87
2018-02-11T00:24:07.129Z,18.86
2018-02-11T00:25:06.950Z,18.89
2018-02-11T00:26:06.982Z,18.83
2018-02-11T00:27:07.022Z,18.84
2018-02-11T00:29:07.437Z,18.86
2018-02-11T00:31:07.350Z,18.82
2018-02-11T00:33:07.242Z,18.86
2018-02-11T00:34:07.222Z,18.90
2018-02-11T00:35:07.371Z,18.87
2018-02-11T00:36:07.740Z,18.83
2018-02-11T00:37:07.364Z,18.90
2018-02-11T00:39:07.431Z,18.86
2018-02-11T00:41:07.451Z,18.86
2018-02-11T00:43:07.959Z,18.84
2018-02-11T00:44:07.545Z,18.87
2018-02-11T00:45:07.643Z,18.90
2018-02-11T00:46:07.870Z,18.87
2018-02-11T00:49:08.156Z,18.87
2018-02-11T00:53:10.987Z,18.87
2018-02-11T00:56:08.408Z,18.87
2018-02-11T00:58:07.927Z,18.82
2018-02-11T00:59:08.160Z,18.79
2018-02-11T01:00:09.094Z,18.87
2018-02-11T01:01:08.028Z,18.91
2018-02-11T01:02:08.166Z,18.93
2018-02-11T01:03:08.450Z,18.91
2018-02-11T01:04:08.156Z,18.87
2018-02-11T01:05:08.331Z,18.90
2018-02-11T01:06:08.237Z,18.91
2018-02-11T01:07:08.287Z,18.91
2018-02-11T01:08:08.349Z,18.76
2018-02-11T01:10:08.919Z,18.84
2018-02-11T01:11:08.362Z,18.90
2018-02-11T01:12:08.336Z,18.78
2018-02-11T01:13:08.381Z,18.84
2018-02-11T01:14:08.389Z,18.84
2018-02-11T01:16:08.851Z,18.82
2018-02-11T01:17:08.481Z,18.89
2018-02-11T01:20:08.797Z,18.87
2018-02-11T01:21:08.595Z,18.82
2018-02-11T01:22:09.020Z,18.76
2018-02-11T01:23:10.066Z,18.86
2018-02-11T01:24:08.794Z,18.78
2018-02-11T01:25:08.926Z,18.86
2018-02-11T01:26:08.965Z,18.78
2018-02-11T01:27:08.873Z,18.90
2018-02-11T01:28:09.015Z,18.78
2018-02-11T01:30:08.941Z,18.84
2018-02-11T01:31:08.967Z,18.78
2018-02-11T01:33:09.278Z,18.84
2018-02-11T01:34:09.210Z,18.76
2018-02-11T01:35:09.032Z,18.87
2018-02-11T01:36:09.037Z,18.86
2018-02-11T01:37:09.143Z,18.91
2018-02-11T01:38:09.098Z,18.83
2018-02-11T01:39:09.512Z,18.89
2018-02-11T01:40:09.211Z,18.82
2018-02-11T01:41:09.257Z,18.84
2018-02-11T01:42:09.220Z,18.78
2018-02-11T01:43:09.261Z,18.87
2018-02-11T01:46:09.743Z,18.87
2018-02-11T01:49:09.420Z,18.78
2018-02-11T01:50:09.985Z,18.86
2018-02-11T01:52:10.042Z,18.87
2018-02-11T01:59:10.114Z,18.89
2018-02-11T02:01:09.863Z,18.89
2018-02-11T02:02:09.871Z,18.87
2018-02-11T02:03:09.833Z,18.90
2018-02-11T02:04:09.887Z,18.91
2018-02-11T02:07:10.324Z,18.83
2018-02-11T02:08:10.063Z,18.86
2018-02-11T02:10:10.091Z,18.78
2018-02-11T02:12:10.206Z,18.76
2018-02-11T02:13:10.128Z,18.79
2018-02-11T02:15:10.841Z,18.83
2018-02-11T02:17:10.368Z,18.78
2018-02-11T02:18:10.291Z,18.78
2018-02-11T02:20:10.334Z,18.75
2018-02-11T02:23:10.803Z,18.82
2018-02-11T02:28:17.147Z,18.84
2018-02-11T02:29:10.667Z,18.82
2018-02-11T02:30:10.664Z,18.75
2018-02-11T02:32:10.722Z,18.76
2018-02-11T02:33:10.728Z,18.78
2018-02-11T02:34:10.813Z,18.76
2018-02-11T02:35:10.791Z,18.76
2018-02-11T02:36:11.123Z,18.79
2018-02-11T02:39:10.904Z,18.82
2018-02-11T02:40:10.977Z,18.76
2018-02-11T02:42:11.089Z,18.75
2018-02-11T02:43:11.379Z,18.84
2018-02-11T02:46:11.108Z,18.79
2018-02-11T02:47:11.127Z,18.78
2018-02-11T02:48:11.248Z,18.84
2018-02-11T02:49:11.208Z,18.78
2018-02-11T02:50:11.594Z,18.83
2018-02-11T02:51:11.451Z,18.78
2018-02-11T02:53:11.307Z,18.86
2018-02-11T02:55:11.367Z,18.86
2018-02-11T02:57:11.888Z,18.79
2018-02-11T02:59:11.522Z,18.78
2018-02-11T03:00:11.618Z,18.82
2018-02-11T03:01:11.538Z,18.74
2018-02-11T03:02:11.626Z,18.82
2018-02-11T03:03:11.965Z,18.78
2018-02-11T03:04:11.958Z,18.84
2018-02-11T03:05:11.658Z,18.79
2018-02-11T03:07:11.729Z,18.87
2018-02-11T03:08:11.769Z,18.75
2018-02-11T03:10:12.177Z,18.78
2018-02-11T03:14:11.977Z,18.78
2018-02-11T03:16:12.131Z,18.83
2018-02-11T03:17:12.381Z,18.76
2018-02-11T03:19:12.073Z,18.76
2018-02-11T03:21:12.408Z,18.79
2018-02-11T03:22:12.178Z,18.76
2018-02-11T03:23:12.192Z,18.84
2018-02-11T03:24:12.526Z,18.86
2018-02-11T03:27:12.677Z,18.78
2018-02-11T03:30:12.763Z,18.87
2018-02-11T03:31:12.528Z,18.75
2018-02-11T03:35:12.538Z,18.84
2018-02-11T03:36:12.690Z,18.86
2018-02-11T03:41:13.070Z,18.84
2018-02-11T03:45:12.902Z,18.79
2018-02-11T03:51:13.686Z,18.78
2018-02-11T03:56:13.413Z,18.86
2018-02-11T04:00:13.656Z,18.89
2018-02-11T04:03:13.421Z,18.76
2018-02-11T04:04:13.396Z,18.84
2018-02-11T04:05:13.438Z,18.78
2018-02-11T04:06:13.557Z,18.89
2018-02-11T04:07:13.490Z,18.89
2018-02-11T04:08:13.519Z,18.87
2018-02-11T04:09:13.612Z,18.84
2018-02-11T04:10:13.591Z,18.87
2018-02-11T04:11:13.657Z,18.78
2018-02-11T04:12:14.014Z,18.87
2018-02-11T04:14:13.739Z,18.84
2018-02-11T04:15:13.740Z,18.87
2018-02-11T04:16:13.818Z,18.78
2018-02-11T04:17:14.158Z,18.78
2018-02-11T04:18:14.166Z,18.86
2018-02-11T04:20:13.921Z,18.76
2018-02-11T04:21:13.899Z,18.82
2018-02-11T04:22:14.100Z,18.79
2018-02-11T04:23:13.970Z,18.75
2018-02-11T04:24:14.303Z,18.84
2018-02-11T04:25:14.036Z,18.83
2018-02-11T04:26:14.055Z,18.79
2018-02-11T04:27:14.143Z,18.86
2018-02-11T04:28:14.101Z,18.75
2018-02-11T04:29:14.181Z,18.78
2018-02-11T04:30:14.480Z,18.78
2018-02-11T04:31:14.240Z,18.82
2018-02-11T04:32:14.289Z,18.74
2018-02-11T04:33:15.351Z,18.78
2018-02-11T04:34:14.317Z,18.76
2018-02-11T04:35:14.339Z,18.78
2018-02-11T04:37:14.667Z,18.76
2018-02-11T04:39:14.526Z,18.87
2018-02-11T04:40:14.526Z,18.78
2018-02-11T04:42:14.713Z,18.76
2018-02-11T04:44:14.950Z,18.78
2018-02-11T04:45:14.768Z,18.79
2018-02-11T04:47:14.712Z,18.82
2018-02-11T04:50:15.183Z,18.83
2018-02-11T04:51:14.802Z,18.76
2018-02-11T04:53:14.895Z,18.78
2018-02-11T04:54:14.867Z,18.84
2018-02-11T04:55:14.897Z,18.82
2018-02-11T04:56:15.313Z,18.87
2018-02-11T04:58:15.037Z,18.78
2018-02-11T04:59:15.023Z,18.82
2018-02-11T05:01:15.073Z,18.78
2018-02-11T05:02:15.126Z,18.82
2018-02-11T05:03:15.520Z,18.79
2018-02-11T05:04:15.184Z,18.87
2018-02-11T05:07:15.334Z,18.78
2018-02-11T05:09:15.812Z,18.72
2018-02-11T05:12:15.413Z,18.78
2018-02-11T05:13:15.480Z,18.76
2018-02-11T05:18:16.026Z,18.79
2018-02-11T05:20:15.709Z,18.78
2018-02-11T05:22:15.959Z,18.75
2018-02-11T05:29:16.488Z,18.79
2018-02-11T05:30:17.410Z,18.84
2018-02-11T05:31:16.305Z,18.79
2018-02-11T05:32:16.068Z,18.75
2018-02-11T05:33:16.096Z,18.84
2018-02-11T05:34:16.047Z,18.79
2018-02-11T05:35:18.161Z,18.83
2018-02-11T05:36:16.458Z,18.79
2018-02-11T05:37:16.154Z,18.74
2018-02-11T05:38:16.224Z,18.79
2018-02-11T05:39:16.267Z,18.78
2018-02-11T05:40:16.296Z,18.84
2018-02-11T05:41:16.360Z,18.79
2018-02-11T05:42:16.302Z,18.76
2018-02-11T05:43:16.708Z,18.76
2018-02-11T05:44:16.414Z,18.76
2018-02-11T05:45:16.373Z,18.79
2018-02-11T05:46:16.515Z,18.76
2018-02-11T05:47:16.496Z,18.78
2018-02-11T05:48:16.628Z,18.76
2018-02-11T05:49:16.521Z,18.75
2018-02-11T05:50:16.950Z,18.83
2018-02-11T05:51:16.566Z,18.76
2018-02-11T05:52:16.651Z,18.76
2018-02-11T05:53:16.677Z,18.78
2018-02-11T05:54:17.116Z,18.78
2018-02-11T05:55:16.766Z,18.78
2018-02-11T05:56:16.697Z,18.83
2018-02-11T05:57:17.076Z,18.78
2018-02-11T05:58:17.201Z,18.79
2018-02-11T05:59:16.869Z,18.78
2018-02-11T06:00:17.229Z,18.82
2018-02-11T06:01:16.998Z,18.79
2018-02-11T06:02:17.006Z,18.78
2018-02-11T06:04:17.335Z,18.79
2018-02-11T06:05:17.031Z,18.76
2018-02-11T06:06:17.205Z,18.84
2018-02-11T06:07:17.019Z,18.83
2018-02-11T06:08:17.076Z,18.78
2018-02-11T06:09:17.157Z,18.79
2018-02-11T06:10:17.106Z,18.78
2018-02-11T06:11:17.518Z,18.89
2018-02-11T06:12:17.386Z,18.75
2018-02-11T06:13:17.266Z,18.79
2018-02-11T06:14:17.276Z,18.84
2018-02-11T06:16:17.449Z,18.78
2018-02-11T06:17:17.345Z,18.75
2018-02-11T06:18:17.414Z,18.84
2018-02-11T06:19:17.400Z,18.90
2018-02-11T06:20:17.446Z,18.83
2018-02-11T06:21:17.438Z,18.82
2018-02-11T06:22:17.919Z,18.84
2018-02-11T06:23:17.678Z,18.76
2018-02-11T06:24:17.588Z,18.79
2018-02-11T06:25:17.577Z,18.76
2018-02-11T06:26:17.712Z,18.79
2018-02-11T06:27:17.639Z,18.89
2018-02-11T06:28:18.046Z,18.79
2018-02-11T06:29:17.718Z,18.82
2018-02-11T06:30:17.787Z,18.76
2018-02-11T06:31:17.825Z,18.86
2018-02-11T06:32:17.760Z,18.78
2018-02-11T06:33:17.869Z,18.82
2018-02-11T06:34:18.180Z,18.87
2018-02-11T06:35:17.871Z,18.90
2018-02-11T06:36:17.897Z,18.83
2018-02-11T06:37:17.928Z,18.79
2018-02-11T06:38:18.185Z,18.79
2018-02-11T06:39:18.018Z,18.82
2018-02-11T06:40:18.372Z,18.87
2018-02-11T06:41:18.073Z,18.83
2018-02-11T06:42:18.096Z,18.87
2018-02-11T06:43:18.207Z,18.84
2018-02-11T06:44:18.239Z,18.87
2018-02-11T06:49:18.767Z,18.75
2018-02-11T06:50:18.457Z,18.89
2018-02-11T06:51:18.362Z,18.76
2018-02-11T06:52:18.370Z,18.78
2018-02-11T06:54:18.432Z,18.76
2018-02-11T06:56:18.845Z,18.78
2018-02-11T06:57:18.518Z,18.84
2018-02-11T07:02:19.251Z,18.74
2018-02-11T07:03:18.674Z,18.82
2018-02-11T07:04:18.712Z,18.94
2018-02-11T07:05:18.760Z,18.90
2018-02-11T07:06:18.811Z,18.79
2018-02-11T07:07:18.791Z,18.78
2018-02-11T07:08:18.881Z,18.90
2018-02-11T07:09:18.877Z,18.89
2018-02-11T07:11:18.926Z,18.84
2018-02-11T07:12:19.012Z,18.87
2018-02-11T07:13:19.052Z,18.86
2018-02-11T07:14:19.374Z,18.87
2018-02-11T07:15:19.033Z,18.83
2018-02-11T07:16:19.064Z,18.89
2018-02-11T07:17:19.094Z,18.87
2018-02-11T07:18:19.151Z,18.91
2018-02-11T07:19:19.577Z,18.89
2018-02-11T07:20:19.552Z,18.91
2018-02-11T07:21:19.208Z,18.84
2018-02-11T07:22:19.315Z,18.86
2018-02-11T07:23:19.282Z,18.83
2018-02-11T07:24:19.391Z,18.87
2018-02-11T07:25:19.516Z,18.87
2018-02-11T07:26:19.703Z,18.91
2018-02-11T07:27:19.408Z,18.90
2018-02-11T07:28:19.493Z,18.86
2018-02-11T07:29:19.464Z,18.83
2018-02-11T07:30:19.550Z,18.79
2018-02-11T07:31:19.568Z,18.89
2018-02-11T07:32:19.538Z,18.87
2018-02-11T07:33:19.970Z,18.91
2018-02-11T07:35:19.885Z,18.90
2018-02-11T07:36:19.679Z,18.75
2018-02-11T07:37:19.771Z,18.91
2018-02-11T07:38:19.823Z,18.86
2018-02-11T07:39:19.779Z,18.90
2018-02-11T07:40:20.138Z,18.94
2018-02-11T07:41:19.846Z,18.94
2018-02-11T07:42:19.825Z,18.86
2018-02-11T07:43:19.869Z,18.96
2018-02-11T07:44:19.959Z,18.90
2018-02-11T07:45:19.922Z,19.01
2018-02-11T07:46:20.004Z,18.79
2018-02-11T07:47:20.387Z,18.86
2018-02-11T07:48:20.086Z,18.97
2018-02-11T07:49:20.132Z,18.96
2018-02-11T07:50:20.065Z,18.91
2018-02-11T07:51:20.162Z,18.91
2018-02-11T07:54:21.058Z,18.86
2018-02-11T07:56:20.313Z,18.86
2018-02-11T07:57:20.324Z,18.94
2018-02-11T07:58:20.299Z,18.82
2018-02-11T07:59:20.393Z,18.99
2018-02-11T08:01:20.811Z,18.90
2018-02-11T08:02:20.442Z,18.90
2018-02-11T08:03:20.473Z,18.99
2018-02-11T08:04:20.731Z,18.93
2018-02-11T08:05:20.580Z,18.86
2018-02-11T08:06:20.546Z,18.84
2018-02-11T08:07:20.587Z,18.89
2018-02-11T08:08:20.962Z,18.96
2018-02-11T08:09:20.705Z,18.96
2018-02-11T08:10:20.773Z,18.84
2018-02-11T08:13:20.756Z,18.91
2018-02-11T08:14:21.017Z,18.89
2018-02-11T08:17:21.234Z,18.90
2018-02-11T08:18:20.921Z,18.97
2018-02-11T08:19:20.987Z,18.93
2018-02-11T08:21:21.241Z,18.91
2018-02-11T08:22:21.047Z,18.91
2018-02-11T08:26:21.498Z,18.96
2018-02-11T08:32:21.657Z,18.89
2018-02-11T08:33:22.871Z,18.87
2018-02-11T08:34:22.847Z,18.87
2018-02-11T08:35:21.452Z,18.89
2018-02-11T08:36:21.436Z,18.87
2018-02-11T08:37:21.460Z,18.86
2018-02-11T08:38:21.532Z,18.86
2018-02-11T08:39:21.876Z,18.89
2018-02-11T08:40:21.639Z,18.86
2018-02-11T08:41:21.596Z,18.94
2018-02-11T08:42:21.609Z,18.86
2018-02-11T08:43:21.670Z,18.90
2018-02-11T08:44:21.689Z,18.89
2018-02-11T08:45:21.709Z,18.96
2018-02-11T08:46:22.102Z,18.87
2018-02-11T08:47:21.768Z,18.91
2018-02-11T08:48:21.842Z,18.93
2018-02-11T08:50:22.044Z,18.86
2018-02-11T08:51:22.443Z,18.90
2018-02-11T08:52:22.282Z,18.97
2018-02-11T08:53:21.996Z,18.99
2018-02-11T08:54:22.011Z,18.89
2018-02-11T08:55:22.004Z,18.90
2018-02-11T08:56:22.077Z,18.91
2018-02-11T08:57:22.063Z,18.86
2018-02-11T08:58:22.430Z,18.94
2018-02-11T08:59:22.123Z,18.93
2018-02-11T09:00:22.159Z,18.97
2018-02-11T09:01:22.164Z,18.91
2018-02-11T09:02:22.435Z,19.02
2018-02-11T09:03:22.317Z,19.05
2018-02-11T09:04:22.603Z,18.96
2018-02-11T09:05:22.289Z,18.97
2018-02-11T09:06:22.319Z,18.96
2018-02-11T09:07:22.364Z,18.97
2018-02-11T09:08:22.592Z,19.01
2018-02-11T09:09:22.426Z,18.97
2018-02-11T09:10:22.788Z,19.02
2018-02-11T09:11:22.542Z,18.99
2018-02-11T09:12:22.495Z,19.02
2018-02-11T09:13:22.603Z,18.97
2018-02-11T09:14:22.781Z,19.02
2018-02-11T09:15:22.640Z,19.05
2018-02-11T09:16:23.136Z,19.10
2018-02-11T09:17:22.735Z,18.99
2018-02-11T09:18:22.728Z,18.96
2018-02-11T09:19:23.200Z,19.09
2018-02-11T09:20:23.253Z,18.99
2018-02-11T09:21:22.794Z,19.05
2018-02-11T09:22:23.182Z,19.02
2018-02-11T09:23:22.854Z,19.15
2018-02-11T09:24:22.893Z,19.02
2018-02-11T09:26:22.961Z,19.01
2018-02-11T09:27:22.964Z,19.02
2018-02-11T09:28:23.348Z,19.06
2018-02-11T09:29:23.077Z,19.05
2018-02-11T09:30:23.047Z,19.05
2018-02-11T09:31:23.092Z,18.97
2018-02-11T09:32:23.139Z,19.01
2018-02-11T09:33:23.197Z,19.05
2018-02-11T09:35:23.534Z,19.06
2018-02-11T09:36:23.230Z,19.07
2018-02-11T09:38:23.374Z,19.06
2018-02-11T09:39:23.309Z,19.06
2018-02-11T09:41:23.725Z,19.01
2018-02-11T09:42:23.409Z,19.09
2018-02-11T09:44:23.659Z,19.13
2018-02-11T09:45:23.474Z,19.10
2018-02-11T09:47:23.903Z,18.99
2018-02-11T09:48:23.640Z,19.12
2018-02-11T09:53:24.348Z,19.10
2018-02-11T09:54:23.786Z,19.09
2018-02-11T09:55:23.878Z,19.12
2018-02-11T09:56:23.870Z,19.10
2018-02-11T09:57:23.862Z,19.13
2018-02-11T09:58:24.025Z,19.13
2018-02-11T09:59:24.306Z,19.06
2018-02-11T10:00:24.205Z,19.13
2018-02-11T10:08:24.838Z,19.09
2018-02-11T10:09:24.278Z,19.12
2018-02-11T10:10:24.345Z,19.06
2018-02-11T10:11:24.350Z,19.07
2018-02-11T10:12:24.424Z,19.10
2018-02-11T10:14:24.716Z,19.06
2018-02-11T10:15:24.376Z,19.13
2018-02-11T10:16:24.402Z,19.10
2018-02-11T10:17:24.571Z,19.09
2018-02-11T10:18:24.866Z,19.10
2018-02-11T10:19:24.566Z,19.12
2018-02-11T10:20:24.594Z,19.01
2018-02-11T10:21:24.878Z,19.13
2018-02-11T10:22:24.598Z,19.10
2018-02-11T10:23:24.634Z,18.99
2018-02-11T10:24:24.746Z,19.07
2018-02-11T10:25:24.665Z,18.99
2018-02-11T10:26:25.002Z,19.07
2018-02-11T10:27:24.855Z,19.01
2018-02-11T10:28:25.065Z,18.99
2018-02-11T10:29:24.805Z,19.02
2018-02-11T10:30:24.889Z,19.05
2018-02-11T10:31:24.851Z,18.97
2018-02-11T10:32:24.929Z,18.97
2018-02-11T10:33:24.983Z,18.99
2018-02-11T10:34:25.028Z,18.97
2018-02-11T10:35:25.358Z,19.05
2018-02-11T10:36:25.050Z,19.01
2018-02-11T10:37:25.185Z,18.97
2018-02-11T10:38:25.082Z,18.97
2018-02-11T10:39:25.157Z,18.97
2018-02-11T10:41:25.510Z,18.99
2018-02-11T10:42:25.176Z,18.99
2018-02-11T10:43:25.276Z,19.05
2018-02-11T10:44:25.234Z,19.05
2018-02-11T10:45:25.332Z,19.06
2018-02-11T10:46:25.319Z,19.02
2018-02-11T10:47:25.399Z,19.06
2018-02-11T10:49:25.788Z,19.12
2018-02-11T10:50:25.449Z,19.10
2018-02-11T10:51:25.469Z,19.09
2018-02-11T10:52:25.583Z,19.01
2018-02-11T10:53:25.558Z,19.12
2018-02-11T10:54:25.632Z,19.06
2018-02-11T10:55:25.640Z,19.06
2018-02-11T10:56:25.951Z,19.06
2018-02-11T10:57:25.750Z,19.05
2018-02-11T10:58:25.674Z,19.10
2018-02-11T11:02:26.379Z,19.15
2018-02-11T11:03:25.848Z,19.10
2018-02-11T11:04:25.905Z,19.17
2018-02-11T11:05:25.864Z,19.15
2018-02-11T11:06:25.897Z,19.21
2018-02-11T11:07:25.926Z,19.20
2018-02-11T11:08:26.043Z,19.25
2018-02-11T11:09:26.331Z,19.16
2018-02-11T11:10:26.011Z,19.23
2018-02-11T11:11:26.056Z,19.17
2018-02-11T11:12:26.203Z,19.17
2018-02-11T11:13:26.169Z,19.27
2018-02-11T11:14:26.220Z,19.15
2018-02-11T11:15:26.189Z,19.24
2018-02-11T11:17:26.588Z,19.21
2018-02-11T11:18:26.441Z,19.21
2018-02-11T11:19:26.367Z,19.17
2018-02-11T11:20:26.403Z,19.16
2018-02-11T11:22:26.442Z,19.27
2018-02-11T11:23:26.487Z,19.28
2018-02-11T11:24:26.759Z,19.31
2018-02-11T11:25:26.516Z,19.27
2018-02-11T11:26:26.586Z,19.25
2018-02-11T11:28:26.639Z,19.24
2018-02-11T11:29:26.667Z,19.27
2018-02-11T11:30:26.982Z,19.27
2018-02-11T11:32:26.691Z,19.30
2018-02-11T11:39:27.312Z,19.32
2018-02-11T11:40:26.934Z,19.46
2018-02-11T11:41:26.941Z,19.39
2018-02-11T11:42:26.977Z,19.35
2018-02-11T11:43:27.206Z,19.39
2018-02-11T11:44:27.146Z,19.38
2018-02-11T11:45:27.139Z,19.39
2018-02-11T11:46:27.104Z,19.39
2018-02-11T11:47:27.125Z,19.40
2018-02-11T11:48:27.228Z,19.39
2018-02-11T11:49:27.342Z,19.42
2018-02-11T11:50:27.230Z,19.47
2018-02-11T11:51:27.559Z,19.40
2018-02-11T11:52:27.358Z,19.46
2018-02-11T11:53:27.363Z,19.43
2018-02-11T11:54:27.334Z,19.47
2018-02-11T11:55:27.366Z,19.40
2018-02-11T11:56:27.425Z,19.46
2018-02-11T11:57:27.792Z,19.43
2018-02-11T11:58:27.470Z,19.50
2018-02-11T11:59:27.664Z,19.46
2018-02-11T12:00:27.599Z,19.38
2018-02-11T12:01:27.609Z,19.42
2018-02-11T12:02:27.596Z,19.43
2018-02-11T12:03:28.025Z,19.45
2018-02-11T12:04:27.644Z,19.47
2018-02-11T12:05:27.816Z,19.43
2018-02-11T12:09:25.664Z,19.49
2018-02-11T12:10:25.667Z,19.52
2018-02-11T12:12:25.750Z,19.52
2018-02-11T12:13:25.774Z,19.50
2018-02-11T12:14:25.734Z,19.47
2018-02-11T12:18:26.330Z,19.57
2018-02-11T12:19:25.919Z,19.57
2018-02-11T12:20:25.919Z,19.45
2018-02-11T12:21:25.978Z,19.50
2018-02-11T12:24:26.615Z,19.60
2018-02-11T12:25:26.055Z,19.57
2018-02-11T12:27:26.166Z,19.52
2018-02-11T12:28:26.194Z,19.55
2018-02-11T12:30:26.599Z,19.61
2018-02-11T12:31:26.228Z,19.58
2018-02-11T17:46:00.300Z,18.50
2018-02-11T17:47:00.316Z,18.51
2018-02-11T17:47:59.980Z,18.47
2018-02-11T17:49:00.039Z,18.53
2018-02-11T17:50:00.011Z,18.49
2018-02-11T17:51:00.051Z,18.53
2018-02-11T17:52:00.340Z,18.54
2018-02-11T17:53:00.151Z,18.64
2018-02-11T17:54:00.199Z,18.56
2018-02-11T17:55:00.148Z,18.62
2018-02-11T17:56:00.165Z,18.59
2018-02-11T17:57:00.247Z,18.59
2018-02-11T17:58:00.713Z,18.65
2018-02-11T17:59:00.201Z,18.68
2018-02-11T18:00:00.252Z,18.62
2018-02-11T18:01:00.309Z,18.62
2018-02-11T18:02:00.310Z,18.68
2018-02-11T18:03:00.356Z,18.64
2018-02-11T18:04:00.768Z,18.68
2018-02-11T18:05:00.387Z,18.78
2018-02-11T18:06:00.474Z,18.76
2018-02-11T18:07:00.499Z,18.78
2018-02-11T18:08:00.547Z,18.83
2018-02-11T18:09:00.639Z,18.89
2018-02-11T18:10:00.871Z,18.90
2018-02-11T18:11:00.633Z,18.83
2018-02-11T18:12:00.627Z,18.93
2018-02-11T18:13:00.625Z,18.86
2018-02-11T18:14:00.665Z,18.91
2018-02-11T18:15:00.676Z,18.96
2018-02-11T18:16:00.950Z,18.93
2018-02-11T18:17:00.766Z,18.97
2018-02-11T18:18:00.915Z,18.89
2018-02-11T18:19:00.842Z,18.90
2018-02-11T18:20:00.817Z,18.96
2018-02-11T18:21:00.865Z,18.94
2018-02-11T18:22:00.977Z,19.02
2018-02-11T18:23:00.901Z,18.97
2018-02-11T18:24:00.992Z,18.99
2018-02-11T18:26:49.088Z,19.06
2018-02-11T18:27:49.388Z,19.06
2018-02-11T18:28:49.112Z,19.15
2018-02-11T18:29:49.146Z,19.10
2018-02-11T18:30:49.372Z,19.06
2018-02-11T18:31:49.235Z,19.09
2018-02-11T18:32:49.306Z,19.10
2018-02-11T18:33:49.331Z,19.10
2018-02-11T18:34:49.340Z,19.07
2018-02-11T18:35:49.360Z,19.12
2018-02-11T18:36:49.372Z,19.09
2018-02-11T18:37:49.465Z,19.07
2018-02-11T18:38:49.578Z,19.06
2018-02-11T18:39:49.743Z,19.09
2018-02-11T18:40:49.477Z,19.09
2018-02-11T18:41:49.539Z,19.06
2018-02-11T18:42:49.542Z,19.09
2018-02-11T18:43:49.597Z,19.09
2018-02-11T18:44:49.603Z,19.07
2018-02-11T18:45:50.009Z,19.06
2018-02-11T18:46:49.652Z,19.05
2018-02-11T18:47:49.684Z,19.01
2018-02-11T18:48:49.777Z,19.05
2018-02-11T18:49:49.777Z,18.99
2018-02-11T18:50:50.006Z,19.02
2018-02-11T18:51:49.908Z,19.09
2018-02-11T18:52:50.135Z,19.02
2018-02-11T18:53:49.856Z,18.96
2018-02-11T18:54:49.892Z,18.94
2018-02-11T18:55:49.957Z,18.93
2018-02-11T18:56:49.959Z,18.93
2018-02-11T18:57:50.379Z,18.94
2018-02-11T18:58:50.330Z,18.89
2018-02-11T18:59:50.048Z,18.94
2018-02-11T19:00:50.090Z,18.96
2018-02-11T19:01:50.154Z,18.91
2018-02-11T19:02:50.127Z,18.93
2018-02-11T19:03:50.184Z,18.99
2018-02-11T19:04:50.569Z,18.93
2018-02-11T19:05:50.816Z,18.89
2018-02-11T19:06:50.446Z,18.93
2018-02-11T19:07:50.448Z,18.89
2018-02-11T19:08:50.716Z,18.89
2018-02-11T19:09:50.367Z,18.90
2018-02-11T19:10:50.730Z,18.91
2018-02-11T19:11:50.457Z,18.91
2018-02-11T19:12:50.934Z,18.87
2018-02-11T19:13:50.590Z,18.87
2018-02-11T19:14:50.513Z,19.05
2018-02-11T19:15:50.597Z,18.96
2018-02-11T19:16:50.563Z,18.96
2018-02-11T19:17:50.884Z,18.91
2018-02-11T19:18:50.774Z,18.89
2018-02-11T19:19:51.884Z,18.94
2018-02-11T19:20:51.140Z,18.91
2018-02-11T19:21:50.707Z,18.89
2018-02-11T19:22:51.185Z,18.91
2018-02-11T19:23:51.071Z,18.89
2018-02-11T19:24:50.915Z,18.93
2018-02-11T19:25:50.897Z,18.93
2018-02-11T19:26:50.887Z,18.91
2018-02-11T19:27:50.895Z,18.87
2018-02-11T19:28:50.949Z,18.89
2018-02-11T19:29:50.989Z,18.97
2018-02-11T19:30:51.321Z,18.79
2018-02-11T19:31:51.058Z,18.87
2018-02-11T19:32:51.086Z,18.93
2018-02-11T19:33:51.530Z,18.97
2018-02-11T19:34:51.173Z,18.86
2018-02-11T19:35:51.150Z,18.91
2018-02-11T19:36:51.558Z,18.91
2018-02-11T19:37:51.180Z,18.86
2018-02-11T19:38:51.253Z,18.86
2018-02-11T19:39:51.260Z,18.96
2018-02-11T19:40:51.278Z,18.78
2018-02-11T19:41:51.304Z,18.96
2018-02-11T19:42:51.643Z,18.99
2018-02-11T19:43:51.451Z,18.90
2018-02-11T19:44:51.337Z,18.90
2018-02-11T19:45:51.815Z,18.79
2018-02-11T19:46:51.467Z,18.91
2018-02-11T19:47:51.468Z,18.93
2018-02-11T19:48:51.992Z,18.84
2018-02-11T19:49:51.535Z,18.89
2018-02-11T19:50:51.567Z,18.89
2018-02-11T19:51:51.640Z,18.84
2018-02-11T19:52:51.607Z,18.90
2018-02-11T19:53:51.686Z,18.96
2018-02-11T19:54:51.740Z,18.86
2018-02-11T19:55:52.099Z,18.91
2018-02-11T19:56:51.737Z,19.01
2018-02-11T19:57:51.846Z,18.97
2018-02-11T19:58:52.067Z,18.87
2018-02-11T19:59:51.839Z,18.84
2018-02-11T20:00:51.901Z,19.01
2018-02-11T20:01:52.192Z,18.90
2018-02-11T20:02:51.924Z,18.89
2018-02-11T20:03:52.017Z,18.82
2018-02-11T20:04:52.208Z,18.93
2018-02-11T20:05:52.255Z,18.87
2018-02-11T20:06:52.046Z,18.97
2018-02-11T20:07:52.455Z,18.89
2018-02-11T20:08:52.175Z,18.84
2018-02-11T20:09:52.192Z,18.93
2018-02-11T20:10:52.333Z,18.94
2018-02-11T20:11:52.230Z,18.93
2018-02-11T20:12:52.255Z,18.89
2018-02-11T20:13:52.723Z,18.86
2018-02-11T20:14:52.354Z,19.02
2018-02-11T20:15:52.307Z,18.96
2018-02-11T20:16:52.333Z,18.87
2018-02-11T20:17:52.576Z,18.86
2018-02-11T20:18:52.365Z,18.87
2018-02-11T20:19:52.445Z,18.86
2018-02-11T20:20:53.016Z,19.01
2018-02-11T20:21:52.484Z,18.96
2018-02-11T20:22:52.561Z,18.89
2018-02-11T20:23:52.549Z,18.91
2018-02-11T20:24:52.602Z,18.89
2018-02-11T20:25:52.553Z,18.91
2018-02-11T20:26:53.032Z,18.91
2018-02-11T20:27:52.622Z,18.89
2018-02-11T20:28:52.753Z,18.89
2018-02-11T20:29:52.717Z,18.97
2018-02-11T20:30:52.792Z,18.87
2018-02-11T20:31:52.790Z,18.93
2018-02-11T20:32:53.134Z,18.94
2018-02-11T20:33:52.870Z,18.79
2018-02-11T20:34:52.920Z,18.87
2018-02-11T20:35:53.076Z,18.84
2018-02-11T20:36:52.973Z,18.91
2018-02-11T20:37:52.911Z,18.93
2018-02-11T20:38:53.263Z,18.89
2018-02-11T20:39:53.044Z,18.91
2018-02-11T20:40:53.098Z,18.86
2018-02-11T20:41:53.095Z,18.91
2018-02-11T20:42:53.128Z,18.83
2018-02-11T20:43:53.082Z,18.99
2018-02-11T20:44:53.456Z,18.86
2018-02-11T20:45:53.280Z,18.94
2018-02-11T20:46:53.306Z,18.94
2018-02-11T20:47:53.381Z,18.87
2018-02-11T20:48:53.290Z,18.86
2018-02-11T20:49:53.451Z,18.84
2018-02-11T20:50:53.807Z,18.90
2018-02-11T20:51:53.388Z,19.01
2018-02-11T20:52:53.444Z,18.86
2018-02-11T20:53:53.392Z,18.78
2018-02-11T20:54:53.513Z,18.86
2018-02-11T20:55:53.526Z,18.90
2018-02-11T20:56:53.756Z,18.87
2018-02-11T20:57:53.499Z,18.76
2018-02-11T20:58:53.591Z,18.86
2018-02-11T20:59:54.054Z,18.90
2018-02-11T21:00:53.775Z,18.94
2018-02-11T21:01:53.691Z,18.87
2018-02-11T21:02:55.310Z,18.93
2018-02-11T21:03:53.734Z,18.86
2018-02-11T21:04:53.929Z,18.96
2018-02-11T21:05:54.101Z,18.90
2018-02-11T21:06:54.265Z,18.96
2018-02-11T21:07:53.883Z,18.86
2018-02-11T21:08:53.843Z,18.94
2018-02-11T21:09:54.229Z,18.93
2018-02-11T21:10:53.900Z,19.02
2018-02-11T21:11:53.978Z,18.90
2018-02-11T21:12:54.037Z,18.84
2018-02-11T21:13:54.093Z,18.87
2018-02-11T21:14:54.063Z,18.89
2018-02-11T21:15:54.067Z,18.99
2018-02-11T21:16:54.269Z,18.89
2018-02-11T21:17:54.468Z,18.89
2018-02-11T21:18:54.225Z,18.89
2018-02-11T21:19:54.255Z,18.96
2018-02-11T21:20:54.248Z,18.89
2018-02-11T21:21:54.264Z,18.96
2018-02-11T21:22:54.635Z,18.90
2018-02-11T21:23:54.412Z,18.89
2018-02-11T21:24:54.459Z,18.93
2018-02-11T21:25:54.366Z,18.90
2018-02-11T21:26:54.363Z,18.96